Time;durP1;ratioP1;P1;durP2;ratioP2;P2;SDS_P1;SDS_P2;PMS_P1;PMS_P2;Temp;Humidity;BMP_temperature;BMP_pressure;BME280_temperature;BME280_humidity;BME280_pressure;Samples;Min_cycle;Max_cycle;Signal;HPM_P1;HPM_P2
2022/12/07 00:00:42;;;;;;;;;;;5.90;89.50;;;;;;5031461;28;20049;-86
2022/12/07 00:03:09;;;;;;;;;;;5.80;89.50;;;;;;5031884;28;20018;-86
2022/12/07 00:05:34;;;;;;;;;;;6.00;89.30;;;;;;5047964;28;20302;-85
2022/12/07 00:08:00;;;;;;;;;;;5.90;89.20;;;;;;5047206;28;19917;-88
2022/12/07 00:10:25;;;;;;;;;;;5.90;89.40;;;;;;5033349;28;19992;-86
2022/12/07 00:12:51;;;;;;;;;;;5.90;89.20;;;;;;5047364;28;19917;-85
2022/12/07 00:15:16;;;;;;;;;;;5.90;89.10;;;;;;5032556;28;19913;-85
2022/12/07 00:17:42;;;;;;;;;;;5.90;89.40;;;;;;5042347;28;19917;-83
2022/12/07 00:20:07;;;;;;;;;;;5.80;89.60;;;;;;5051823;28;19929;-86
2022/12/07 00:22:33;;;;;;;;;;;5.90;89.30;;;;;;5047962;28;20177;-86
2022/12/07 00:24:58;;;;;;;;;;;5.90;89.30;;;;;;5031781;28;19920;-85
2022/12/07 00:27:24;;;;;;;;;;;5.90;89.20;;;;;;5035026;28;19914;-85
2022/12/07 00:29:49;;;;;;;;;;;5.90;89.40;;;;;;5035023;28;19913;-85
2022/12/07 00:32:14;;;;;;;;;;;5.90;89.40;;;;;;5047634;28;19921;-85
2022/12/07 00:34:40;;;;;;;;;;;5.90;89.50;;;;;;5034332;28;19976;-86
2022/12/07 00:37:05;;;;;;;;;;;6.00;89.10;;;;;;5033974;28;19920;-86
2022/12/07 00:39:31;;;;;;;;;;;6.00;89.10;;;;;;5054049;28;19920;-85
2022/12/07 00:41:56;;;;;;;;;;;6.00;89.20;;;;;;5033318;28;19951;-86
2022/12/07 00:44:22;;;;;;;;;;;6.00;89.00;;;;;;5036678;28;19917;-85
2022/12/07 00:46:47;;;;;;;;;;;6.00;89.20;;;;;;5035177;28;20343;-86
2022/12/07 00:49:13;;;;;;;;;;;6.00;89.00;;;;;;5033395;28;19944;-85
2022/12/07 00:51:38;;;;;;;;;;;6.10;88.80;;;;;;5031134;28;20015;-85
2022/12/07 00:54:03;;;;;;;;;;;6.10;88.90;;;;;;5036952;28;19936;-86
2022/12/07 00:56:29;;;;;;;;;;;6.00;89.00;;;;;;5031633;28;19944;-85
2022/12/07 00:58:59;;;;;;;;;;;6.00;89.20;;;;;;5028643;28;19913;-85
2022/12/07 01:01:25;;;;;;;;;;;6.00;89.20;;;;;;5031729;28;20091;-85
2022/12/07 01:03:51;;;;;;;;;;;6.00;88.80;;;;;;5038900;28;19916;-84
2022/12/07 01:06:17;;;;;;;;;;;6.00;88.60;;;;;;5039912;28;19913;-85
2022/12/07 01:08:43;;;;;;;;;;;6.00;88.70;;;;;;5031804;28;20699;-86
2022/12/07 01:11:09;;;;;;;;;;;6.00;88.90;;;;;;5033782;28;19956;-85
2022/12/07 01:13:35;;;;;;;;;;;6.10;88.70;;;;;;5038486;28;19913;-86
2022/12/07 01:16:01;;;;;;;;;;;6.10;88.40;;;;;;5034081;28;20084;-86
2022/12/07 01:18:27;;;;;;;;;;;6.10;88.70;;;;;;5032843;28;19924;-85
2022/12/07 01:21:01;;;;;;;;;;;6.10;88.30;;;;;;5035660;28;19939;-85
2022/12/07 01:23:27;;;;;;;;;;;6.00;88.40;;;;;;5050037;28;19913;-85
2022/12/07 01:25:56;;;;;;;;;;;6.00;88.80;;;;;;5037840;28;20393;-85
2022/12/07 01:28:22;;;;;;;;;;;6.00;88.70;;;;;;5052410;28;19908;-85
2022/12/07 01:30:56;;;;;;;;;;;6.00;88.70;;;;;;5032976;28;20271;-85
2022/12/07 01:33:22;;;;;;;;;;;6.00;88.60;;;;;;5033670;28;20354;-85
2022/12/07 01:35:47;;;;;;;;;;;6.00;88.80;;;;;;5032494;28;20055;-86
2022/12/07 01:38:12;;;;;;;;;;;6.00;89.20;;;;;;5031904;28;19925;-85
2022/12/07 01:40:38;;;;;;;;;;;6.00;89.00;;;;;;5032295;28;19917;-83
2022/12/07 01:43:08;;;;;;;;;;;5.90;88.90;;;;;;5075551;28;19917;-85
2022/12/07 01:45:37;;;;;;;;;;;5.90;89.10;;;;;;5029474;28;19921;-87
2022/12/07 01:48:03;;;;;;;;;;;6.00;89.00;;;;;;5031690;28;19921;-85
2022/12/07 01:50:31;;;;;;;;;;;5.90;89.00;;;;;;5032698;28;19913;-85
2022/12/07 01:52:58;;;;;;;;;;;5.90;89.00;;;;;;5032453;28;20232;-85
2022/12/07 01:55:24;;;;;;;;;;;6.00;88.80;;;;;;5032281;28;19921;-85
2022/12/07 01:57:51;;;;;;;;;;;5.90;88.90;;;;;;5026523;28;19917;-85
2022/12/07 02:00:17;;;;;;;;;;;6.00;89.20;;;;;;5039790;28;19913;-84
2022/12/07 02:02:45;;;;;;;;;;;6.00;89.30;;;;;;5031529;28;19913;-85
2022/12/07 02:05:11;;;;;;;;;;;5.90;89.40;;;;;;5031201;28;19913;-85
2022/12/07 02:07:37;;;;;;;;;;;5.80;89.30;;;;;;5032006;28;20354;-84
2022/12/07 02:10:35;;;;;;;;;;;5.90;89.30;;;;;;5049348;28;19917;-85
2022/12/07 02:13:21;;;;;;;;;;;6.00;89.20;;;;;;4997085;28;20444;-84
2022/12/07 02:15:59;;;;;;;;;;;6.00;88.60;;;;;;5029115;28;19912;-84
2022/12/07 02:18:42;;;;;;;;;;;6.00;88.70;;;;;;5036349;28;19917;-84
2022/12/07 02:21:26;;;;;;;;;;;6.00;88.80;;;;;;5054543;28;19913;-84
2022/12/07 02:24:10;;;;;;;;;;;5.90;89.20;;;;;;5037873;28;19952;-86
2022/12/07 02:26:42;;;;;;;;;;;6.00;89.00;;;;;;5031111;28;19913;-87
2022/12/07 02:29:10;;;;;;;;;;;6.00;88.40;;;;;;5029487;28;19921;-87
2022/12/07 02:31:37;;;;;;;;;;;6.00;88.60;;;;;;5032740;28;19917;-86
2022/12/07 02:34:09;;;;;;;;;;;6.00;88.50;;;;;;5045139;28;19909;-88
2022/12/07 02:36:38;;;;;;;;;;;5.90;88.50;;;;;;5050811;28;20346;-87
2022/12/07 02:39:11;;;;;;;;;;;5.90;88.50;;;;;;5030706;28;20290;-86
2022/12/07 02:41:40;;;;;;;;;;;5.80;88.60;;;;;;5032846;28;19992;-86
2022/12/07 02:44:08;;;;;;;;;;;5.90;88.20;;;;;;5039832;28;19956;-86
2022/12/07 02:46:36;;;;;;;;;;;5.90;88.40;;;;;;5035139;28;20422;-86
2022/12/07 02:49:02;;;;;;;;;;;5.80;88.10;;;;;;5042876;28;19975;-86
2022/12/07 02:51:32;;;;;;;;;;;5.80;88.30;;;;;;5079667;22;19928;-76
2022/12/07 02:53:57;;;;;;;;;;;5.70;88.80;;;;;;5071434;28;19942;-77
2022/12/07 02:56:25;;;;;;;;;;;5.70;88.50;;;;;;5075043;28;20408;-77
2022/12/07 02:59:15;;;;;;;;;;;5.80;88.70;;;;;;5082667;28;20379;-77
2022/12/07 03:01:55;;;;;;;;;;;5.70;88.90;;;;;;5082380;28;19992;-77
2022/12/07 03:04:32;;;;;;;;;;;5.70;89.10;;;;;;5084658;28;19965;-77
2022/12/07 03:07:05;;;;;;;;;;;5.70;89.00;;;;;;5079186;28;19938;-78
2022/12/07 03:09:57;;;;;;;;;;;5.70;88.80;;;;;;5071622;28;19932;-78
2022/12/07 03:12:25;;;;;;;;;;;5.70;88.90;;;;;;5056588;28;19923;-78
2022/12/07 03:14:56;;;;;;;;;;;5.60;88.80;;;;;;5077437;28;19973;-78
2022/12/07 03:17:25;;;;;;;;;;;5.60;88.80;;;;;;5075809;28;20398;-78
2022/12/07 03:19:52;;;;;;;;;;;5.60;89.30;;;;;;5074635;28;19967;-78
2022/12/07 03:22:19;;;;;;;;;;;5.60;88.90;;;;;;5075550;28;20263;-78
2022/12/07 03:24:56;;;;;;;;;;;5.60;88.90;;;;;;5075667;28;20295;-78
2022/12/07 03:27:33;;;;;;;;;;;5.60;88.90;;;;;;5076781;28;19969;-77
2022/12/07 03:30:01;;;;;;;;;;;5.50;88.80;;;;;;5076570;28;20131;-78
2022/12/07 03:32:30;;;;;;;;;;;5.50;88.90;;;;;;5079688;28;20287;-78
2022/12/07 03:34:56;;;;;;;;;;;5.50;89.10;;;;;;5076872;28;19912;-78
2022/12/07 03:37:26;;;;;;;;;;;5.50;88.80;;;;;;5078326;28;19916;-78
2022/12/07 03:39:52;;;;;;;;;;;5.40;88.80;;;;;;5076096;28;19919;-78
2022/12/07 03:42:17;;;;;;;;;;;5.40;88.60;;;;;;5076839;28;20283;-77
2022/12/07 03:44:43;;;;;;;;;;;5.50;88.20;;;;;;5074972;28;20299;-77
2022/12/07 03:47:31;;;;;;;;;;;5.40;88.40;;;;;;5075117;28;20020;-78
2022/12/07 03:50:23;;;;;;;;;;;5.30;88.60;;;;;;5079849;28;19961;-78
2022/12/07 03:52:59;;;;;;;;;;;5.10;88.90;;;;;;5067193;28;20240;-78
2022/12/07 03:55:30;;;;;;;;;;;5.10;88.90;;;;;;5087466;28;19913;-78
2022/12/07 03:57:58;;;;;;;;;;;5.10;88.90;;;;;;5077768;28;19913;-78
2022/12/07 04:00:24;;;;;;;;;;;5.10;89.00;;;;;;5074658;28;20003;-75
2022/12/07 04:02:53;;;;;;;;;;;5.10;89.10;;;;;;5069586;28;19951;-75
2022/12/07 04:05:18;;;;;;;;;;;5.10;88.80;;;;;;5073812;28;19909;-78
2022/12/07 04:07:44;;;;;;;;;;;5.00;89.00;;;;;;5074067;28;20352;-77
2022/12/07 04:10:10;;;;;;;;;;;5.00;89.30;;;;;;5075736;28;19995;-78
2022/12/07 04:12:35;;;;;;;;;;;5.00;89.20;;;;;;5075474;28;19915;-77
2022/12/07 04:15:01;;;;;;;;;;;5.10;89.30;;;;;;5072167;28;20372;-77
2022/12/07 04:17:26;;;;;;;;;;;5.10;89.10;;;;;;5081431;28;19917;-77
2022/12/07 04:19:52;;;;;;;;;;;5.00;89.10;;;;;;5074018;28;19956;-78
2022/12/07 04:22:17;;;;;;;;;;;5.00;89.50;;;;;;5074968;28;20307;-77
2022/12/07 04:24:42;;;;;;;;;;;5.00;89.60;;;;;;5078849;28;19912;-77
2022/12/07 04:27:08;;;;;;;;;;;5.00;89.50;;;;;;5072959;28;19993;-77
2022/12/07 04:29:33;;;;;;;;;;;5.10;89.40;;;;;;5068896;28;19991;-77
2022/12/07 04:31:59;;;;;;;;;;;5.10;89.40;;;;;;5065886;28;19927;-77
2022/12/07 04:34:24;;;;;;;;;;;5.10;89.30;;;;;;5073175;28;20718;-81
2022/12/07 04:36:50;;;;;;;;;;;5.10;89.10;;;;;;5065345;28;19916;-77
2022/12/07 04:39:20;;;;;;;;;;;5.20;89.20;;;;;;5064889;28;19936;-77
2022/12/07 04:41:45;;;;;;;;;;;5.20;89.00;;;;;;5073363;28;19923;-75
2022/12/07 04:44:14;;;;;;;;;;;5.10;89.10;;;;;;5070098;28;19909;-76
2022/12/07 04:46:39;;;;;;;;;;;5.10;89.20;;;;;;5068567;28;19912;-76
2022/12/07 04:49:04;;;;;;;;;;;5.10;88.80;;;;;;5070189;28;19919;-77
2022/12/07 04:51:30;;;;;;;;;;;5.10;88.90;;;;;;5071324;28;19921;-76
2022/12/07 04:53:55;;;;;;;;;;;5.10;88.90;;;;;;5075767;28;19935;-76
2022/12/07 04:56:22;;;;;;;;;;;5.10;89.10;;;;;;5076387;28;19912;-77
2022/12/07 04:58:48;;;;;;;;;;;5.10;89.30;;;;;;5070395;28;20034;-77
2022/12/07 05:01:15;;;;;;;;;;;5.10;89.30;;;;;;5071687;28;20501;-76
2022/12/07 05:03:40;;;;;;;;;;;5.20;89.10;;;;;;5068614;28;19927;-76
2022/12/07 05:06:06;;;;;;;;;;;5.10;88.80;;;;;;5067747;28;19917;-76
2022/12/07 05:08:32;;;;;;;;;;;5.10;89.00;;;;;;5070164;28;19916;-76
2022/12/07 05:10:58;;;;;;;;;;;5.10;89.00;;;;;;5067726;28;19952;-76
2022/12/07 05:13:23;;;;;;;;;;;5.10;88.70;;;;;;5066782;28;19967;-76
2022/12/07 05:15:49;;;;;;;;;;;5.10;88.80;;;;;;5070488;28;19920;-76
2022/12/07 05:18:15;;;;;;;;;;;5.10;89.00;;;;;;5068987;28;19920;-76
2022/12/07 05:20:41;;;;;;;;;;;5.00;89.10;;;;;;5068538;28;20355;-76
2022/12/07 05:23:06;;;;;;;;;;;5.00;89.00;;;;;;5066345;28;19923;-76
2022/12/07 05:25:32;;;;;;;;;;;5.00;89.10;;;;;;5068411;28;19912;-76
2022/12/07 05:27:57;;;;;;;;;;;5.00;88.90;;;;;;5069145;28;19924;-75
2022/12/07 05:30:23;;;;;;;;;;;5.00;88.90;;;;;;5067530;28;19912;-76
2022/12/07 05:32:49;;;;;;;;;;;4.90;89.20;;;;;;5068115;28;20476;-76
2022/12/07 05:35:14;;;;;;;;;;;4.90;89.40;;;;;;5068993;28;19912;-77
2022/12/07 05:37:39;;;;;;;;;;;4.90;89.50;;;;;;5057026;28;20303;-77
2022/12/07 05:40:05;;;;;;;;;;;4.90;89.40;;;;;;5071419;28;20010;-77
2022/12/07 05:42:31;;;;;;;;;;;5.00;89.30;;;;;;5069828;28;20735;-77
2022/12/07 05:44:56;;;;;;;;;;;5.00;89.20;;;;;;5069669;28;20011;-76
2022/12/07 05:47:22;;;;;;;;;;;4.90;89.20;;;;;;5066421;28;19913;-76
2022/12/07 05:49:47;;;;;;;;;;;4.80;89.20;;;;;;5083331;28;20317;-76
2022/12/07 05:52:12;;;;;;;;;;;4.80;89.40;;;;;;5069506;28;19981;-76
2022/12/07 05:54:38;;;;;;;;;;;4.80;89.60;;;;;;5065341;28;20260;-76
2022/12/07 05:57:03;;;;;;;;;;;4.80;89.50;;;;;;5066906;28;19996;-76
2022/12/07 05:59:29;;;;;;;;;;;4.70;89.40;;;;;;5065772;28;19916;-76
2022/12/07 06:01:55;;;;;;;;;;;4.70;89.70;;;;;;5082867;28;19944;-75
2022/12/07 06:04:21;;;;;;;;;;;4.70;89.70;;;;;;5060585;28;20329;-76
2022/12/07 06:06:47;;;;;;;;;;;4.80;89.80;;;;;;5067883;28;19958;-75
2022/12/07 06:09:12;;;;;;;;;;;4.80;89.60;;;;;;5066504;28;20352;-76
2022/12/07 06:14:23;;;;;;;;;;;4.90;89.20;;;;;;5072330;28;20424;-76
2022/12/07 06:16:48;;;;;;;;;;;5.00;88.90;;;;;;5070640;28;19912;-76
2022/12/07 06:19:14;;;;;;;;;;;5.00;88.90;;;;;;5070228;28;20394;-76
2022/12/07 06:21:39;;;;;;;;;;;4.80;88.90;;;;;;5076271;28;19912;-76
2022/12/07 06:24:05;;;;;;;;;;;4.80;89.00;;;;;;5071705;28;19974;-76
2022/12/07 06:26:30;;;;;;;;;;;4.80;89.20;;;;;;5071749;28;19999;-76
2022/12/07 06:28:56;;;;;;;;;;;4.90;88.80;;;;;;5067658;28;19928;-76
2022/12/07 06:31:21;;;;;;;;;;;4.80;89.20;;;;;;5068372;28;19932;-75
2022/12/07 06:33:47;;;;;;;;;;;4.80;89.10;;;;;;5073751;28;19912;-76
2022/12/07 06:36:13;;;;;;;;;;;4.80;88.90;;;;;;5071188;28;19912;-78
2022/12/07 06:38:38;;;;;;;;;;;4.80;89.10;;;;;;5071364;28;20402;-76
2022/12/07 06:41:04;;;;;;;;;;;4.80;88.80;;;;;;5068677;28;19917;-75
2022/12/07 06:43:30;;;;;;;;;;;4.70;89.20;;;;;;5073968;28;19921;-76
2022/12/07 06:45:55;;;;;;;;;;;4.60;89.40;;;;;;5065206;28;19952;-77
2022/12/07 06:48:21;;;;;;;;;;;4.70;89.30;;;;;;5067101;28;20008;-74
2022/12/07 06:50:50;;;;;;;;;;;4.80;89.20;;;;;;5065287;28;19912;-75
2022/12/07 06:53:15;;;;;;;;;;;4.80;89.30;;;;;;5069764;28;19916;-76
2022/12/07 06:55:41;;;;;;;;;;;4.80;89.20;;;;;;5072126;28;19912;-76
2022/12/07 06:58:06;;;;;;;;;;;4.90;88.80;;;;;;5072740;28;19956;-76
2022/12/07 07:00:32;;;;;;;;;;;4.90;88.80;;;;;;5064723;28;19928;-76
2022/12/07 07:02:57;;;;;;;;;;;4.80;88.60;;;;;;5062365;28;19956;-76
2022/12/07 07:05:22;;;;;;;;;;;4.80;88.40;;;;;;5062877;28;19916;-76
2022/12/07 07:07:48;;;;;;;;;;;4.70;88.40;;;;;;5071311;28;19913;-76
2022/12/07 07:10:14;;;;;;;;;;;4.70;88.40;;;;;;5070971;28;19912;-77
2022/12/07 07:12:39;;;;;;;;;;;4.60;88.60;;;;;;5061960;28;19974;-76
2022/12/07 07:15:05;;;;;;;;;;;4.60;88.70;;;;;;5070749;28;19939;-76
2022/12/07 07:17:30;;;;;;;;;;;4.70;88.80;;;;;;5069718;28;19916;-75
2022/12/07 07:19:56;;;;;;;;;;;4.60;88.50;;;;;;5075027;28;19920;-76
2022/12/07 07:22:21;;;;;;;;;;;4.60;88.80;;;;;;5068359;28;19966;-76
2022/12/07 07:24:47;;;;;;;;;;;4.60;88.80;;;;;;5070301;28;20308;-75
2022/12/07 07:27:12;;;;;;;;;;;4.60;88.30;;;;;;5070272;28;20027;-76
2022/12/07 07:29:38;;;;;;;;;;;4.60;88.40;;;;;;5069840;28;19912;-76
2022/12/07 07:32:03;;;;;;;;;;;4.50;88.50;;;;;;5069213;28;20389;-76
2022/12/07 07:34:29;;;;;;;;;;;4.50;88.80;;;;;;5070917;28;20007;-76
2022/12/07 07:36:54;;;;;;;;;;;4.50;88.60;;;;;;5064162;28;19920;-76
2022/12/07 07:39:19;;;;;;;;;;;4.60;88.50;;;;;;5071948;28;19920;-76
2022/12/07 07:41:45;;;;;;;;;;;4.60;88.40;;;;;;5084003;28;19954;-76
2022/12/07 07:44:11;;;;;;;;;;;4.50;88.50;;;;;;5074025;28;20015;-76
2022/12/07 07:46:36;;;;;;;;;;;4.50;88.40;;;;;;5069455;28;19983;-76
2022/12/07 07:49:02;;;;;;;;;;;4.50;88.70;;;;;;5072093;28;19916;-76
2022/12/07 07:51:27;;;;;;;;;;;4.40;88.80;;;;;;5071680;28;19917;-76
2022/12/07 07:53:53;;;;;;;;;;;4.40;88.90;;;;;;5066131;28;19920;-76
2022/12/07 07:56:18;;;;;;;;;;;4.50;88.90;;;;;;5066645;28;19916;-76
2022/12/07 07:58:44;;;;;;;;;;;4.40;88.90;;;;;;5071782;28;19912;-76
2022/12/07 08:01:09;;;;;;;;;;;4.40;88.70;;;;;;5067573;28;19958;-76
2022/12/07 08:03:35;;;;;;;;;;;4.40;88.80;;;;;;5067756;28;19912;-76
2022/12/07 08:06:04;;;;;;;;;;;4.30;88.60;;;;;;5065950;28;20348;-76
2022/12/07 08:08:29;;;;;;;;;;;4.40;88.40;;;;;;5069990;28;19947;-76
2022/12/07 08:10:55;;;;;;;;;;;4.50;88.40;;;;;;5065247;28;20042;-76
2022/12/07 08:13:20;;;;;;;;;;;4.50;88.20;;;;;;5067279;28;19917;-76
2022/12/07 08:15:47;;;;;;;;;;;4.50;88.20;;;;;;5082712;28;19999;-77
2022/12/07 08:18:12;;;;;;;;;;;4.50;88.20;;;;;;5068663;28;20010;-75
2022/12/07 08:20:39;;;;;;;;;;;4.50;88.40;;;;;;5069238;28;20007;-75
2022/12/07 08:23:05;;;;;;;;;;;4.50;88.30;;;;;;5063910;28;20025;-75
2022/12/07 08:25:31;;;;;;;;;;;4.50;88.40;;;;;;5070097;28;19932;-77
2022/12/07 08:27:56;;;;;;;;;;;4.60;88.40;;;;;;5067681;28;19947;-75
2022/12/07 08:30:22;;;;;;;;;;;4.60;88.20;;;;;;5071120;28;20337;-75
2022/12/07 08:32:48;;;;;;;;;;;4.60;88.20;;;;;;5068954;28;19912;-76
2022/12/07 08:35:14;;;;;;;;;;;4.70;88.10;;;;;;5070186;28;19908;-76
2022/12/07 08:37:40;;;;;;;;;;;4.80;88.10;;;;;;5068185;28;19941;-75
2022/12/07 08:40:06;;;;;;;;;;;4.90;88.10;;;;;;5064357;28;20634;-74
2022/12/07 08:42:37;;;;;;;;;;;5.00;87.70;;;;;;5053972;28;19924;-76
2022/12/07 08:45:06;;;;;;;;;;;5.10;87.40;;;;;;5049713;28;19977;-75
2022/12/07 08:47:31;;;;;;;;;;;5.10;87.30;;;;;;5068672;28;19951;-74
2022/12/07 08:50:03;;;;;;;;;;;5.10;87.30;;;;;;5065167;28;20014;-75
2022/12/07 08:52:29;;;;;;;;;;;5.20;87.30;;;;;;5094326;22;20053;-80
2022/12/07 08:54:55;;;;;;;;;;;5.20;87.20;;;;;;5092859;28;20463;-80
2022/12/07 08:57:21;;;;;;;;;;;5.30;87.00;;;;;;5092881;28;19952;-80
2022/12/07 08:59:46;;;;;;;;;;;5.30;86.80;;;;;;5093263;28;19916;-80
2022/12/07 09:02:11;;;;;;;;;;;5.30;87.00;;;;;;5092469;28;19916;-80
2022/12/07 09:04:37;;;;;;;;;;;5.30;87.00;;;;;;5087140;28;20484;-80
2022/12/07 09:07:03;;;;;;;;;;;5.30;87.20;;;;;;5094740;28;19909;-80
2022/12/07 09:09:29;;;;;;;;;;;5.30;87.00;;;;;;5094370;28;20345;-83
2022/12/07 09:11:54;;;;;;;;;;;5.30;86.80;;;;;;5080402;28;19938;-84
2022/12/07 09:14:20;;;;;;;;;;;5.30;87.10;;;;;;5089624;28;20395;-84
2022/12/07 09:16:45;;;;;;;;;;;5.40;86.90;;;;;;5093056;28;20437;-84
2022/12/07 09:19:11;;;;;;;;;;;5.40;86.80;;;;;;5088078;28;19954;-83
2022/12/07 09:21:36;;;;;;;;;;;5.40;86.90;;;;;;5087405;28;19911;-83
2022/12/07 09:24:02;;;;;;;;;;;5.50;86.60;;;;;;5080737;28;20437;-84
2022/12/07 09:26:27;;;;;;;;;;;5.50;86.70;;;;;;5098238;28;20370;-84
2022/12/07 09:28:53;;;;;;;;;;;5.60;86.30;;;;;;5080139;28;19924;-83
2022/12/07 09:31:18;;;;;;;;;;;5.60;86.30;;;;;;5088209;28;19915;-83
2022/12/07 09:33:44;;;;;;;;;;;5.60;86.30;;;;;;5098421;28;19977;-84
2022/12/07 09:36:10;;;;;;;;;;;5.60;86.40;;;;;;5094610;28;19970;-82
2022/12/07 09:38:35;;;;;;;;;;;5.60;86.10;;;;;;5087094;28;19916;-84
2022/12/07 09:41:05;;;;;;;;;;;5.60;86.10;;;;;;5084566;28;20289;-84
2022/12/07 09:43:31;;;;;;;;;;;5.70;86.30;;;;;;5078742;28;19919;-83
2022/12/07 09:45:56;;;;;;;;;;;5.70;86.10;;;;;;5090639;28;19909;-84
2022/12/07 09:48:29;;;;;;;;;;;5.60;85.80;;;;;;5074460;28;19920;-82
2022/12/07 09:50:55;;;;;;;;;;;5.70;85.80;;;;;;5078397;28;20051;-83
2022/12/07 09:53:26;;;;;;;;;;;5.60;86.20;;;;;;5088831;28;19972;-84
2022/12/07 09:55:52;;;;;;;;;;;5.60;86.00;;;;;;5092549;28;20401;-84
2022/12/07 09:58:26;;;;;;;;;;;5.60;86.10;;;;;;5089315;28;19912;-82
2022/12/07 10:00:56;;;;;;;;;;;5.60;85.60;;;;;;5080880;28;19923;-84
2022/12/07 10:03:22;;;;;;;;;;;5.60;85.80;;;;;;5078146;28;20309;-84
2022/12/07 10:05:49;;;;;;;;;;;5.50;86.10;;;;;;5087374;28;19916;-84
2022/12/07 10:08:16;;;;;;;;;;;5.50;86.20;;;;;;5090094;28;19912;-83
2022/12/07 10:10:43;;;;;;;;;;;5.30;86.20;;;;;;5111228;28;19920;-84
2022/12/07 10:13:08;;;;;;;;;;;5.30;86.80;;;;;;5112190;28;20292;-83
2022/12/07 10:15:45;;;;;;;;;;;5.30;86.90;;;;;;5114257;28;19908;-83
2022/12/07 10:18:29;;;;;;;;;;;5.30;86.70;;;;;;5093483;28;19916;-83
2022/12/07 10:21:13;;;;;;;;;;;5.30;86.80;;;;;;5089183;28;19912;-84
2022/12/07 10:23:40;;;;;;;;;;;5.30;87.00;;;;;;5084139;28;20423;-83
2022/12/07 10:26:25;;;;;;;;;;;5.40;86.70;;;;;;5090575;28;20339;-83
2022/12/07 10:28:50;;;;;;;;;;;5.40;86.60;;;;;;5084291;28;19912;-84
2022/12/07 10:31:18;;;;;;;;;;;5.50;86.40;;;;;;5097218;28;19973;-84
2022/12/07 10:33:57;;;;;;;;;;;5.60;86.70;;;;;;5091013;28;19995;-84
2022/12/07 10:36:25;;;;;;;;;;;5.60;86.40;;;;;;5087918;28;19912;-85
2022/12/07 10:38:59;;;;;;;;;;;5.80;85.40;;;;;;5099302;28;19920;-87
2022/12/07 10:41:25;;;;;;;;;;;5.80;85.40;;;;;;5081049;28;20423;-85
2022/12/07 10:43:55;;;;;;;;;;;5.90;85.10;;;;;;5086630;28;20022;-86
2022/12/07 10:46:20;;;;;;;;;;;5.90;84.60;;;;;;5091216;28;19951;-85
2022/12/07 10:48:49;;;;;;;;;;;6.00;84.70;;;;;;5074391;28;19913;-86
2022/12/07 10:51:36;;;;;;;;;;;6.00;84.00;;;;;;5080930;28;19912;-84
2022/12/07 10:54:22;;;;;;;;;;;6.00;84.50;;;;;;5083276;28;19951;-85
2022/12/07 10:57:02;;;;;;;;;;;6.20;83.60;;;;;;5069739;28;19987;-85
2022/12/07 10:59:39;;;;;;;;;;;6.10;83.50;;;;;;5097883;28;20301;-84
2022/12/07 11:02:08;;;;;;;;;;;6.10;83.50;;;;;;5107080;28;20011;-84
2022/12/07 11:04:54;;;;;;;;;;;6.10;83.20;;;;;;5087276;28;19912;-85
2022/12/07 11:07:25;;;;;;;;;;;6.20;83.30;;;;;;5081954;28;20301;-85
2022/12/07 11:10:00;;;;;;;;;;;6.30;83.40;;;;;;5087266;28;19916;-85
2022/12/07 11:12:37;;;;;;;;;;;6.30;82.80;;;;;;5090735;28;19920;-85
2022/12/07 11:15:03;;;;;;;;;;;6.30;83.60;;;;;;5086213;28;20316;-85
2022/12/07 11:17:35;;;;;;;;;;;6.40;82.80;;;;;;5084179;28;19973;-85
2022/12/07 11:20:20;;;;;;;;;;;6.30;83.00;;;;;;5100068;28;19912;-84
2022/12/07 11:22:52;;;;;;;;;;;6.30;83.10;;;;;;5086771;28;19919;-85
2022/12/07 11:25:30;;;;;;;;;;;6.30;83.00;;;;;;5086496;28;19931;-85
2022/12/07 11:27:58;;;;;;;;;;;6.20;83.10;;;;;;5088165;28;20019;-84
2022/12/07 11:30:50;;;;;;;;;;;6.20;82.80;;;;;;5095998;28;19948;-84
2022/12/07 11:33:16;;;;;;;;;;;6.30;82.90;;;;;;5071483;28;20366;-84
2022/12/07 11:35:46;;;;;;;;;;;6.30;83.30;;;;;;5073593;28;20027;-84
2022/12/07 11:38:15;;;;;;;;;;;6.30;82.80;;;;;;5089948;28;20267;-84
2022/12/07 11:40:42;;;;;;;;;;;6.30;82.80;;;;;;5091416;28;19913;-84
2022/12/07 11:43:14;;;;;;;;;;;6.40;83.40;;;;;;5080468;28;19916;-86
2022/12/07 11:45:44;;;;;;;;;;;6.50;82.90;;;;;;5085540;28;19916;-84
2022/12/07 11:48:15;;;;;;;;;;;6.50;82.00;;;;;;5107271;27;19923;-85
2022/12/07 11:50:42;;;;;;;;;;;6.50;82.40;;;;;;5117685;28;19920;-86
2022/12/07 11:53:08;;;;;;;;;;;6.60;81.60;;;;;;5091313;28;20389;-85
2022/12/07 11:55:42;;;;;;;;;;;6.70;81.40;;;;;;5076410;28;19999;-84
2022/12/07 11:58:28;;;;;;;;;;;6.70;81.20;;;;;;5090319;28;19916;-84
2022/12/07 12:01:00;;;;;;;;;;;6.60;81.50;;;;;;5087800;28;19923;-83
2022/12/07 12:03:31;;;;;;;;;;;6.70;81.00;;;;;;5096642;28;19920;-83
2022/12/07 12:05:57;;;;;;;;;;;6.70;81.00;;;;;;5087953;28;19988;-84
2022/12/07 12:08:25;;;;;;;;;;;6.60;81.60;;;;;;5078277;28;20281;-84
2022/12/07 12:10:57;;;;;;;;;;;6.60;81.60;;;;;;5101982;28;19935;-85
2022/12/07 12:13:42;;;;;;;;;;;6.60;81.10;;;;;;5089621;28;20323;-84
2022/12/07 12:16:21;;;;;;;;;;;6.70;80.60;;;;;;5079561;28;19912;-84
2022/12/07 12:18:46;;;;;;;;;;;6.60;81.00;;;;;;5091929;28;19926;-84
2022/12/07 12:21:17;;;;;;;;;;;6.50;80.50;;;;;;5093953;28;19911;-85
2022/12/07 12:23:44;;;;;;;;;;;6.50;80.70;;;;;;5081625;28;20045;-85
2022/12/07 12:26:20;;;;;;;;;;;6.50;80.90;;;;;;5087648;28;20020;-85
2022/12/07 12:28:45;;;;;;;;;;;6.50;80.80;;;;;;5094967;28;20392;-84
2022/12/07 12:31:12;;;;;;;;;;;6.50;80.90;;;;;;5096879;28;19912;-85
2022/12/07 12:33:42;;;;;;;;;;;6.60;80.70;;;;;;5092570;28;20373;-85
2022/12/07 12:36:18;;;;;;;;;;;6.60;80.60;;;;;;5096110;28;20387;-83
2022/12/07 12:39:02;;;;;;;;;;;6.60;80.80;;;;;;5075883;28;19935;-85
2022/12/07 12:44:14;;;;;;;;;;;6.80;79.60;;;;;;5074705;28;20254;-83
2022/12/07 12:46:45;;;;;;;;;;;6.60;79.40;;;;;;5090172;28;20025;-83
2022/12/07 12:49:20;;;;;;;;;;;6.80;78.70;;;;;;5099187;28;19912;-82
2022/12/07 12:51:53;;;;;;;;;;;6.60;79.40;;;;;;5079397;28;19919;-83
2022/12/07 12:54:26;;;;;;;;;;;6.70;79.80;;;;;;5101226;28;20382;-82
2022/12/07 12:56:56;;;;;;;;;;;6.80;80.00;;;;;;5098892;28;19912;-83
2022/12/07 12:59:21;;;;;;;;;;;6.80;80.30;;;;;;5090356;28;19927;-84
2022/12/07 13:01:49;;;;;;;;;;;6.80;79.60;;;;;;5076584;28;22034;-82
2022/12/07 13:04:22;;;;;;;;;;;6.80;79.60;;;;;;5085719;28;19918;-83
2022/12/07 13:06:48;;;;;;;;;;;6.80;79.90;;;;;;5085803;28;20346;-83
2022/12/07 13:09:24;;;;;;;;;;;6.80;79.70;;;;;;5094733;28;19995;-82
2022/12/07 13:11:54;;;;;;;;;;;6.80;80.20;;;;;;5094585;28;19999;-83
2022/12/07 13:14:40;;;;;;;;;;;6.80;79.50;;;;;;5092844;28;19919;-83
2022/12/07 13:17:31;;;;;;;;;;;6.80;79.90;;;;;;5101080;28;19911;-83
2022/12/07 13:19:59;;;;;;;;;;;6.70;80.20;;;;;;5091283;28;19921;-83
2022/12/07 13:22:30;;;;;;;;;;;6.70;80.00;;;;;;5094960;28;19912;-82
2022/12/07 13:24:57;;;;;;;;;;;6.70;79.50;;;;;;5078401;28;20007;-83
2022/12/07 13:27:22;;;;;;;;;;;6.80;79.00;;;;;;5092160;28;19987;-82
2022/12/07 13:29:48;;;;;;;;;;;6.80;79.60;;;;;;5105148;28;19954;-82
2022/12/07 13:32:29;;;;;;;;;;;6.80;79.70;;;;;;5098041;28;19972;-82
2022/12/07 13:34:54;;;;;;;;;;;6.80;79.50;;;;;;5084558;28;19999;-81
2022/12/07 13:37:25;;;;;;;;;;;6.70;79.40;;;;;;5088541;28;20000;-82
2022/12/07 13:39:52;;;;;;;;;;;6.70;80.00;;;;;;5073251;28;20316;-81
2022/12/07 13:42:31;;;;;;;;;;;6.70;80.50;;;;;;5094447;28;19908;-82
2022/12/07 13:44:58;;;;;;;;;;;6.70;80.10;;;;;;5096215;28;20411;-83
2022/12/07 13:47:30;;;;;;;;;;;6.60;80.10;;;;;;5081557;28;20408;-82
2022/12/07 13:49:56;;;;;;;;;;;6.80;80.30;;;;;;5084966;28;19916;-83
2022/12/07 13:52:26;;;;;;;;;;;6.80;80.40;;;;;;5092490;28;20078;-82
2022/12/07 13:55:06;;;;;;;;;;;6.90;79.30;;;;;;5077976;28;19912;-83
2022/12/07 13:57:36;;;;;;;;;;;6.70;80.30;;;;;;5087477;28;19941;-84
2022/12/07 14:00:13;;;;;;;;;;;6.80;79.80;;;;;;5111733;28;19908;-83
2022/12/07 14:03:01;;;;;;;;;;;6.80;79.60;;;;;;5101647;28;19908;-83
2022/12/07 14:05:27;;;;;;;;;;;6.70;80.50;;;;;;5104077;28;19908;-82
2022/12/07 14:08:00;;;;;;;;;;;6.80;80.00;;;;;;5099654;28;19913;-83
2022/12/07 14:10:26;;;;;;;;;;;6.70;80.20;;;;;;5091463;28;19919;-83
2022/12/07 14:12:51;;;;;;;;;;;6.70;80.50;;;;;;5092175;28;19909;-83
2022/12/07 14:15:32;;;;;;;;;;;6.60;81.10;;;;;;5092172;28;19916;-83
2022/12/07 14:17:58;;;;;;;;;;;6.60;80.90;;;;;;5091126;28;19927;-83
2022/12/07 14:20:36;;;;;;;;;;;6.50;79.80;;;;;;5090435;28;20370;-83
2022/12/07 14:23:08;;;;;;;;;;;6.20;79.50;;;;;;5084808;28;19912;-83
2022/12/07 14:25:54;;;;;;;;;;;6.00;80.20;;;;;;5087816;28;20002;-81
2022/12/07 14:28:27;;;;;;;;;;;5.80;81.00;;;;;;5094567;28;19912;-83
2022/12/07 14:30:52;;;;;;;;;;;5.60;81.40;;;;;;5081206;28;20384;-81
2022/12/07 14:33:18;;;;;;;;;;;5.60;82.20;;;;;;5096568;28;19912;-81
2022/12/07 14:35:43;;;;;;;;;;;5.50;82.00;;;;;;5088923;28;19923;-82
2022/12/07 14:38:09;;;;;;;;;;;5.40;82.50;;;;;;5090975;28;20023;-81
2022/12/07 14:40:34;;;;;;;;;;;5.50;82.40;;;;;;5099010;28;20007;-81
2022/12/07 14:43:01;;;;;;;;;;;5.40;82.40;;;;;;5073862;28;19908;-80
2022/12/07 14:45:27;;;;;;;;;;;5.40;82.50;;;;;;5074899;28;19954;-80